Latest Weather Observations for Groote Eylandt Airport

IDD60801

Issued at 3:11 pm CST Sunday 15 September 2019 (issued every 10 minutes, with the page automatically refreshed every 10 minutes)

About weather observations | Map of weather stations | Latest weather observations for NT | Other Formats
Station Details ID: 014518 Name: GROOTE EYLANDT AIRPORT Lat: -13.97 Lon: 136.46 Height: 13.7 m
Data from the previous 72 hours. | See also: Recent months at Groote Eylandt Airport
Date/Time
CST
Temp
°C
App
Temp
°C
Dew
Point
°C
Rel
Hum
%
Delta-T
°C
Wind Press
QNH
hPa
Press
MSL
hPa
Rain since
9am
mm
Dir  Spd
km/h
Gust
km/h
Spd
kts
Gust
kts
15/03:00pm 29.7 27.9 12.2 34 10.2 NE 13 28 7 15 1014.5 1014.4 0.0
15/02:30pm 29.7 27.5 14.3 39 9.3 ENE 19 32 10 17 1014.8 1014.7 0.0
15/02:00pm 29.6 27.3 14.6 40 9.1 E 20 30 11 16 1014.9 1014.8 0.0
15/01:30pm 29.9 28.2 14.8 39 9.2 ESE 17 28 9 15 1015.2 1015.1 0.0
15/01:00pm 30.6 28.7 15.1 39 9.5 E 19 30 10 16 1015.5 1015.4 0.0
15/12:30pm 30.2 28.1 15.1 40 9.2 E 20 30 11 16 1016.0 1015.9 0.0
15/12:00pm 30.0 27.9 16.1 43 8.6 E 22 32 12 17 1016.5 1016.4 0.0
15/11:30am 30.3 27.1 15.2 40 9.3 E 26 35 14 19 1016.8 1016.7 0.0
15/11:00am 29.5 27.5 14.9 41 8.9 ESE 19 37 10 20 1017.1 1017.0 0.0
15/10:30am 28.0 26.8 16.0 48 7.4 ESE 17 48 9 26 1017.4 1017.3 0.0
15/10:00am 29.9 29.5 16.3 43 8.5 ENE 13 20 7 11 1017.6 1017.5 0.0
15/09:30am 28.0 26.3 16.3 49 7.2 E 20 28 11 15 1017.7 1017.6 0.0
15/09:00am 27.6 26.3 15.9 49 7.2 ENE 17 26 9 14 1017.6 1017.5 0.0
15/08:30am 26.5 25.4 16.4 53 6.2 ENE 17 22 9 12 1017.4 1017.3 0.0
15/08:00am 25.3 25.5 16.7 59 5.3 ENE 11 17 6 9 1017.1 1017.0 0.0
15/07:30am 21.6 22.3 16.1 71 3.3 E 7 11 4 6 1017.1 1017.0 0.0
15/07:00am 17.1 17.1 14.2 83 1.7 ESE 7 9 4 5 1017.0 1016.9 0.0
15/06:30am 15.6 15.5 13.3 86 1.3 E 6 7 3 4 1016.6 1016.5 0.0
15/06:00am 15.7 15.4 13.4 86 1.3 E 7 7 4 4 1016.1 1016.0 0.0
15/05:30am 15.9 16.3 13.6 86 1.3 NE 4 9 2 5 1015.8 1015.7 0.0
15/05:00am 15.9 16.3 13.6 86 1.3 E 4 7 2 4 1015.4 1015.3 0.0
15/04:30am 15.7 16.4 13.5 87 1.2 E 2 7 1 4 1015.3 1015.2 0.0
15/04:00am 14.8 14.4 13.0 89 1.0 E 7 7 4 4 1015.0 1014.9 0.0
15/03:30am 14.8 15.0 13.0 89 1.0 E 4 7 2 4 1015.0 1014.9 0.0
15/03:00am 14.5 14.7 12.9 90 0.9 ESE 4 7 2 4 1015.2 1015.1 0.0
15/02:30am 14.4 15.3 12.8 90 0.9 CALM 0 0 0 0 1015.5 1015.4 0.0
15/02:00am 14.7 15.5 12.7 88 1.1 CALM 0 0 0 0 1015.8 1015.7 0.0
15/01:30am 15.1 16.1 13.1 88 1.1 CALM 0 0 0 0 1016.1 1016.0 0.0
15/01:00am 15.1 16.1 13.3 89 1.0 CALM 0 0 0 0 1016.4 1016.3 0.0
15/12:30am 15.5 16.2 13.5 88 1.1 ESE 2 6 1 3 1016.8 1016.7 0.0
15/12:00am 15.8 16.8 13.3 85 1.4 CALM 0 0 0 0 1017.0 1016.9 0.0
 
Date/Time
CST
Temp
°C
App
Temp
°C
Dew
Point
°C
Rel
Hum
%
Delta-T
°C
Wind Press
QNH
hPa
Press
MSL
hPa
Rain since
9am
mm
Dir  Spd
km/h
Gust
km/h
Spd
kts
Gust
kts
14/11:30pm 17.0 17.5 13.9 82 1.8 ESE 4 6 2 3 1017.3 1017.2 0.0
14/11:00pm 17.5 18.6 13.6 78 2.2 CALM 0 0 0 0 1017.6 1017.5 0.0
14/10:30pm 17.8 18.8 13.1 74 2.6 CALM 0 0 0 0 1017.8 1017.7 0.0
14/10:00pm 18.1 19.1 13.2 73 2.8 CALM 0 0 0 0 1017.9 1017.8 0.0
14/09:30pm 18.2 19.2 13.3 73 2.8 CALM 0 0 0 0 1017.8 1017.7 0.0
14/09:00pm 18.7 19.5 12.7 68 3.4 CALM 0 0 0 0 1017.7 1017.6 0.0
14/08:30pm 19.8 19.5 12.6 63 4.0 SE 6 9 3 5 1017.5 1017.4 0.0
14/08:00pm 20.7 21.0 12.1 58 4.8 SE 2 6 1 3 1017.2 1017.1 0.0
14/07:30pm 22.6 21.9 11.4 49 6.2 SE 6 9 3 5 1016.9 1016.8 0.0
14/07:00pm 23.6 22.6 11.0 45 7.0 SE 7 9 4 5 1016.7 1016.6 0.0
14/06:30pm 24.8 23.1 9.9 39 8.2 ESE 9 13 5 7 1016.5 1016.4 0.0
14/06:00pm 26.1 22.4 8.1 32 9.6 ESE 17 30 9 16 1016.0 1015.9 0.0
14/05:30pm 26.7 23.3 9.1 33 9.6 ESE 17 28 9 15 1015.7 1015.6 0.0
14/05:00pm 27.7 24.9 10.0 33 9.9 ESE 15 22 8 12 1015.5 1015.4 0.0
14/04:30pm 28.1 25.1 10.8 34 9.8 ESE 17 32 9 17 1015.4 1015.3 0.0
14/04:00pm 28.7 25.2 10.8 33 10.2 ESE 20 32 11 17 1015.4 1015.3 0.0
14/03:30pm 28.8 25.5 10.9 33 10.2 SE 19 35 10 19 1015.3 1015.2 0.0
14/03:00pm 28.9 25.2 9.6 30 10.8 SE 19 30 10 16 1015.4 1015.3 0.0
14/02:30pm 29.3 26.4 12.3 35 9.9 ESE 19 33 10 18 1015.6 1015.5 0.0
14/02:00pm 29.1 25.2 13.3 37 9.4 E 26 35 14 19 1016.0 1015.9 0.0
14/01:30pm 29.5 26.5 13.7 38 9.4 ESE 22 33 12 18 1016.2 1016.1 0.0
14/01:17pm 30.1 26.3 14.6 39 9.4 ESE 28 46 15 25 1016.3 1016.2 0.0
14/01:00pm 29.7 26.8 13.9 38 9.5 ESE 22 33 12 18 1016.4 1016.3 0.0
14/12:30pm 30.1 27.1 12.1 33 10.5 E 19 32 10 17 1016.8 1016.7 0.0
14/12:00pm 29.5 27.7 16.0 44 8.4 ESE 20 33 11 18 1017.4 1017.3 0.0
14/11:30am 29.8 28.3 17.6 48 7.7 E 22 35 12 19 1017.7 1017.6 0.0
14/11:00am 29.2 26.3 17.1 48 7.6 E 28 39 15 21 1018.1 1018.0 0.0
14/10:30am 28.3 27.0 18.1 54 6.5 ESE 22 35 12 19 1018.6 1018.5 0.0
14/10:00am 27.5 26.1 17.9 55 6.1 ESE 22 35 12 19 1018.9 1018.8 0.0
14/09:30am 27.3 24.7 16.9 53 6.5 ESE 26 43 14 23 1018.9 1018.8 0.0
14/09:00am 27.3 26.2 17.2 54 6.3 ESE 19 32 10 17 1018.6 1018.5 0.0
14/08:30am 26.7 25.3 16.9 55 6.1 ESE 20 35 11 19 1018.7 1018.6 0.0
14/08:00am 24.2 25.1 16.7 63 4.6 ESE 7 13 4 7 1018.6 1018.5 0.0
14/07:30am 19.2 20.4 15.9 81 2.0 ESE 4 7 2 4 1018.3 1018.2 0.0
14/07:00am 15.7 15.3 14.2 91 0.9 E 9 11 5 6 1017.9 1017.8 0.0
14/06:30am 14.1 14.3 13.1 94 0.5 ESE 4 7 2 4 1016.9 1016.8 0.0
14/06:00am 14.0 15.0 13.1 94 0.5 CALM 0 0 0 0 1016.6 1016.5 0.0
14/05:30am 14.3 14.6 13.3 94 0.6 E 4 7 2 4 1016.4 1016.3 0.0
14/05:00am 14.3 15.3 13.3 94 0.6 CALM 0 0 0 0 1016.3 1016.2 0.0
14/04:30am 14.6 15.7 13.6 94 0.6 CALM 0 0 0 0 1016.1 1016.0 0.0
14/04:00am 14.9 15.8 13.9 94 0.6 E 2 6 1 3 1016.0 1015.9 0.0
14/03:30am 15.2 16.1 14.1 93 0.6 E 2 7 1 4 1016.1 1016.0 0.0
14/03:00am 15.7 17.3 14.9 95 0.5 CALM 0 0 0 0 1016.2 1016.1 0.0
14/02:30am 15.6 17.2 14.8 95 0.5 CALM 0 0 0 0 1016.4 1016.3 0.0
14/02:00am 15.9 17.5 14.9 94 0.6 CALM 0 0 0 0 1016.8 1016.7 0.0
14/01:30am 16.3 18.1 15.5 95 0.5 CALM 0 2 0 1 1017.0 1016.9 0.0
14/01:00am 16.5 18.3 15.5 94 0.6 CALM 0 6 0 3 1017.2 1017.1 0.0
14/12:30am 17.1 18.0 16.0 93 0.6 ESE 6 7 3 4 1017.7 1017.6 0.0
14/12:00am 17.6 19.6 16.1 91 0.9 CALM 0 0 0 0 1017.9 1017.8 0.0
 
Date/Time
CST
Temp
°C
App
Temp
°C
Dew
Point
°C
Rel
Hum
%
Delta-T
°C
Wind Press
QNH
hPa
Press
MSL
hPa
Rain since
9am
mm
Dir  Spd
km/h
Gust
km/h
Spd
kts
Gust
kts
13/11:30pm 18.3 20.6 16.8 91 0.9 CALM 0 0 0 0 1018.0 1017.9 0.0
13/11:00pm 19.3 21.9 17.4 89 1.2 CALM 0 0 0 0 1018.5 1018.4 0.0
13/10:30pm 19.9 22.7 17.9 88 1.2 CALM 0 0 0 0 1018.9 1018.8 0.0
13/10:00pm 20.9 23.2 18.5 86 1.5 SE 4 7 2 4 1019.0 1018.9 0.0
13/09:30pm 21.4 23.6 18.4 83 1.9 SE 4 7 2 4 1018.9 1018.8 0.0
13/09:00pm 21.9 24.4 18.1 79 2.4 SSE 2 7 1 4 1018.8 1018.7 0.0
13/08:30pm 22.8 24.4 18.3 76 2.8 SE 7 11 4 6 1018.6 1018.5 0.0
13/08:00pm 23.2 24.5 18.5 75 3.0 ESE 9 15 5 8 1018.2 1018.1 0.0
13/07:30pm 23.5 24.8 18.4 73 3.2 ESE 9 15 5 8 1017.9 1017.8 0.0
13/07:00pm 24.0 24.4 18.2 70 3.6 ESE 13 19 7 10 1017.5 1017.4 0.0
13/06:30pm 24.3 24.8 17.5 66 4.2 ESE 11 17 6 9 1017.0 1016.9 0.0
13/06:00pm 25.2 24.1 17.4 62 4.9 ESE 19 30 10 16 1016.5 1016.4 0.0
13/05:30pm 26.2 25.5 17.3 58 5.6 ESE 17 28 9 15 1016.2 1016.1 0.0
13/05:00pm 26.7 25.6 17.2 56 5.9 ESE 19 28 10 15 1016.0 1015.9 0.0
13/04:30pm 27.8 27.1 17.3 52 6.6 ESE 17 26 9 14 1015.8 1015.7 0.0
13/04:00pm 28.6 28.0 17.5 51 7.0 ESE 17 28 9 15 1015.7 1015.6 0.0
13/03:30pm 28.4 26.9 16.3 47 7.5 E 19 32 10 17 1015.8 1015.7 0.0
13/03:00pm 29.3 27.9 16.5 46 8.0 ESE 19 30 10 16 1015.8 1015.7 0.0
13/02:30pm 29.0 27.7 14.8 42 8.6 SE 15 24 8 13 1016.1 1016.0 0.0
13/02:00pm 29.0 27.0 15.5 44 8.3 ESE 20 30 11 16 1016.4 1016.3 0.0
13/01:30pm 29.6 27.5 14.6 40 9.1 E 19 30 10 16 1016.7 1016.6 0.0
13/01:00pm 29.2 27.7 15.3 42 8.5 E 17 24 9 13 1017.3 1017.2 0.0
13/12:30pm 28.9 27.1 15.4 44 8.3 E 19 32 10 17 1017.8 1017.7 0.0
13/12:00pm 29.1 26.5 14.9 42 8.6 E 22 33 12 18 1018.1 1018.0 0.0
13/11:30am 28.7 26.5 14.9 43 8.4 ESE 20 32 11 17 1018.6 1018.5 0.0
13/11:00am 27.9 26.5 15.5 46 7.6 SE 17 32 9 17 1018.9 1018.8 0.0
13/10:30am 27.7 25.6 14.7 45 7.8 ESE 19 33 10 18 1019.3 1019.2 0.0
13/10:00am 27.0 25.3 15.7 50 6.9 SE 19 30 10 16 1019.5 1019.4 0.0
13/09:30am 27.2 25.7 15.2 47 7.3 ESE 17 35 9 19 1019.5 1019.4 0.0
13/09:00am 26.1 24.8 15.8 53 6.3 ESE 17 26 9 14 1019.6 1019.5 0.0
13/08:30am 25.2 26.2 17.7 63 4.7 E 9 15 5 8 1019.5 1019.4 0.0
13/08:00am 22.4 23.6 17.3 73 3.1 ESE 7 9 4 5 1019.3 1019.2 0.0
13/07:30am 18.1 18.7 15.4 84 1.6 ENE 6 11 3 6 1019.1 1019.0 0.0
13/07:00am 14.4 15.3 13.0 91 0.8 CALM 0 0 0 0 1018.2 1018.1 0.0
13/06:30am 13.4 13.8 12.5 94 0.5 SSE 2 7 1 4 1017.8 1017.7 0.0
13/06:00am 13.5 13.5 12.4 93 0.6 E 4 9 2 5 1017.2 1017.1 0.0
13/05:30am 13.6 13.2 12.5 93 0.6 E 6 7 3 4 1016.9 1016.8 0.0
13/05:00am 14.0 15.0 13.1 94 0.5 CALM 0 6 0 3 1016.5 1016.4 0.0
13/04:30am 13.9 14.8 12.8 93 0.6 CALM 0 6 0 3 1016.3 1016.2 0.0
13/04:00am 14.2 15.2 13.2 94 0.6 CALM 0 7 0 4 1016.3 1016.2 0.0
13/03:30am 14.4 15.4 13.3 93 0.6 CALM 0 0 0 0 1016.4 1016.3 0.0
13/03:00am 14.9 16.0 13.6 92 0.7 CALM 0 7 0 4 1016.5 1016.4 0.0
13/02:30am 14.8 15.9 13.5 92 0.7 CALM 0 0 0 0 1016.6 1016.5 0.0
13/02:00am 15.3 16.6 14.0 92 0.7 CALM 0 0 0 0 1016.6 1016.5 0.0
13/01:30am 15.5 16.9 14.4 93 0.6 CALM 0 0 0 0 1017.0 1016.9 0.0
13/01:00am 15.8 17.3 14.7 93 0.6 CALM 0 0 0 0 1017.3 1017.2 0.0
13/12:30am 16.5 18.2 15.2 92 0.8 CALM 0 0 0 0 1017.7 1017.6 0.0
13/12:00am 17.2 19.2 16.1 93 0.6 CALM 0 0 0 0 1018.2 1018.1 0.0
 
Date/Time
CST
Temp
°C
App
Temp
°C
Dew
Point
°C
Rel
Hum
%
Delta-T
°C
Wind Press
QNH
hPa
Press
MSL
hPa
Rain since
9am
mm
Dir  Spd
km/h
Gust
km/h
Spd
kts
Gust
kts
12/11:30pm 17.9 20.1 16.4 91 0.9 CALM 0 0 0 0 1018.8 1018.7 0.0
12/11:00pm 18.5 20.8 16.7 89 1.1 CALM 0 0 0 0 1019.0 1018.9 0.0
12/10:30pm 19.3 21.7 16.9 86 1.4 CALM 0 0 0 0 1019.1 1019.0 0.0
12/10:00pm 20.3 22.8 17.3 83 1.8 CALM 0 0 0 0 1019.2 1019.1 0.0
12/09:30pm 21.4 23.4 17.8 80 2.2 SE 4 7 2 4 1019.2 1019.1 0.0
12/09:00pm 21.8 23.4 18.2 80 2.2 SE 7 13 4 7 1019.2 1019.1 0.0
12/08:30pm 21.9 23.5 17.9 78 2.5 SSE 6 9 3 5 1019.1 1019.0 0.0
12/08:00pm 22.5 24.0 17.6 74 3.0 SE 6 7 3 4 1018.8 1018.7 0.0
12/07:30pm 23.2 23.9 17.9 72 3.3 ESE 11 17 6 9 1018.5 1018.4 0.0
12/07:00pm 23.5 24.3 17.3 68 3.8 ESE 9 15 5 8 1018.2 1018.1 0.0
12/06:30pm 24.2 24.5 17.0 64 4.4 ESE 11 17 6 9 1017.9 1017.8 0.0
12/06:00pm 25.4 24.3 15.4 54 6.0 ESE 15 20 8 11 1017.6 1017.5 0.0
12/05:30pm 26.5 25.1 13.3 44 7.7 ESE 13 22 7 12 1017.2 1017.1 0.0
12/05:00pm 27.1 26.1 13.4 42 8.1 SE 11 20 6 11 1016.9 1016.8 0.0
12/04:30pm 28.1 26.1 14.0 42 8.4 ESE 17 30 9 16 1016.8 1016.7 0.0
12/04:00pm 28.0 25.5 13.5 41 8.6 E 19 30 10 16 1016.7 1016.6 0.0
12/03:30pm 28.5 26.8 13.6 40 8.9 E 15 20 8 11 1016.7 1016.6 0.0

Other formats

Comma delimited format used in spreadsheet applications
http://www.bom.gov.au/fwo/IDD60801/IDD60801.94153.axf

JavaScript Object Notation format (JSON) in row-major order
http://www.bom.gov.au/fwo/IDD60801/IDD60801.94153.json

Data quality

Most of these data are generated automatically and are frequently updated. Quality checks on data are not normally performed. It is possible for incorrect values to appear. Refer to information at About Latest Weather Observations and please check the disclaimer before using these data.